createdAt,value
2018-12-03T00:00:45.737Z,99.99
2018-12-03T00:01:46.005Z,99.99
2018-12-03T00:02:46.007Z,99.99
2018-12-03T00:03:45.978Z,99.99
2018-12-03T00:04:45.731Z,99.99
2018-12-03T00:05:45.979Z,99.99
2018-12-03T00:06:45.978Z,99.99
2018-12-03T00:07:45.718Z,99.99
2018-12-03T00:08:45.984Z,99.99
2018-12-03T00:09:45.955Z,99.99
2018-12-03T00:10:45.956Z,99.99
2018-12-03T00:11:45.718Z,99.99
2018-12-03T00:12:45.945Z,99.99
2018-12-03T00:13:45.943Z,99.99
2018-12-03T00:14:45.697Z,99.99
2018-12-03T00:15:45.701Z,99.99
2018-12-03T00:16:45.941Z,99.99
2018-12-03T00:17:45.936Z,99.99
2018-12-03T00:18:45.932Z,99.99
2018-12-03T00:19:45.931Z,99.99
2018-12-03T00:20:45.921Z,99.99
2018-12-03T00:21:45.924Z,99.99
2018-12-03T00:22:45.985Z,99.99
2018-12-03T00:23:45.669Z,99.99
2018-12-03T00:24:45.914Z,99.99
2018-12-03T00:25:45.915Z,99.99
2018-12-03T00:26:45.922Z,99.99
2018-12-03T00:27:45.913Z,99.99
2018-12-03T00:28:45.650Z,99.99
2018-12-03T00:29:45.906Z,99.99
2018-12-03T00:30:45.888Z,99.99
2018-12-03T00:31:45.641Z,99.99
2018-12-03T00:32:45.665Z,99.99
2018-12-03T00:33:45.906Z,99.99
2018-12-03T00:34:45.631Z,99.99
2018-12-03T00:35:45.875Z,99.99
2018-12-03T00:36:45.619Z,99.99
2018-12-03T00:37:45.880Z,99.99
2018-12-03T00:38:45.867Z,99.99
2018-12-03T00:39:45.876Z,99.99
2018-12-03T00:40:45.869Z,99.99
2018-12-03T00:41:45.873Z,99.99
2018-12-03T00:42:45.851Z,99.99
2018-12-03T00:43:45.602Z,99.99
2018-12-03T00:44:45.854Z,99.99
2018-12-03T00:45:45.596Z,99.99
2018-12-03T00:46:45.837Z,99.99
2018-12-03T00:47:45.844Z,99.99
2018-12-03T00:48:45.836Z,99.99
2018-12-03T00:49:45.588Z,99.99
2018-12-03T00:50:45.590Z,99.99
2018-12-03T00:51:45.828Z,99.99
2018-12-03T00:52:45.835Z,99.99
2018-12-03T00:53:45.820Z,99.99
2018-12-03T00:54:45.828Z,99.99
2018-12-03T00:55:45.806Z,99.99
2018-12-03T00:56:45.565Z,99.99
2018-12-03T00:57:45.803Z,99.99
2018-12-03T00:58:45.798Z,99.99
2018-12-03T00:59:45.797Z,99.99
2018-12-03T01:00:45.815Z,99.99
2018-12-03T01:01:45.786Z,99.99
2018-12-03T01:02:45.544Z,99.99
2018-12-03T01:03:45.780Z,99.99
2018-12-03T01:04:45.532Z,99.99
2018-12-03T01:05:45.789Z,99.99
2018-12-03T01:06:45.779Z,99.99
2018-12-03T01:07:45.786Z,99.99
2018-12-03T01:08:45.766Z,99.99
2018-12-03T01:09:45.760Z,99.99
2018-12-03T01:10:45.514Z,99.99
2018-12-03T01:11:45.796Z,99.99
2018-12-03T01:12:45.507Z,99.99
2018-12-03T01:13:45.754Z,99.99
2018-12-03T01:14:45.757Z,99.99
2018-12-03T01:15:45.747Z,99.99
2018-12-03T01:16:45.734Z,99.99
2018-12-03T01:17:45.735Z,99.99
2018-12-03T01:18:45.490Z,99.99
2018-12-03T01:19:45.491Z,99.99
2018-12-03T01:20:45.476Z,99.99
2018-12-03T01:21:45.716Z,99.99
2018-12-03T01:22:45.717Z,99.99
2018-12-03T01:23:45.719Z,99.99
2018-12-03T01:24:45.458Z,99.99
2018-12-03T01:25:45.710Z,99.99
2018-12-03T01:26:45.748Z,99.99
2018-12-03T01:27:45.703Z,99.99
2018-12-03T01:28:45.444Z,99.99
2018-12-03T01:29:45.699Z,99.99
2018-12-03T01:30:45.687Z,99.99
2018-12-03T01:31:45.441Z,99.99
2018-12-03T01:32:45.680Z,99.99
2018-12-03T01:33:45.690Z,99.99
2018-12-03T01:34:45.427Z,99.99
2018-12-03T01:35:45.676Z,99.99
2018-12-03T01:36:45.667Z,99.99
2018-12-03T01:37:45.411Z,99.99
2018-12-03T01:38:45.658Z,99.99
2018-12-03T01:39:45.663Z,99.99
2018-12-03T01:40:45.651Z,99.99
2018-12-03T01:41:45.646Z,99.99
2018-12-03T01:42:45.643Z,99.99
2018-12-03T01:43:45.402Z,99.99
2018-12-03T01:44:45.654Z,99.99
2018-12-03T01:45:45.641Z,99.99
2018-12-03T01:46:45.648Z,99.99
2018-12-03T01:47:45.624Z,99.99
2018-12-03T01:48:45.630Z,99.99
2018-12-03T01:49:45.622Z,99.99
2018-12-03T01:50:45.624Z,99.99
2018-12-03T01:51:45.616Z,99.99
2018-12-03T01:52:45.611Z,99.99
2018-12-03T01:53:45.657Z,99.99
2018-12-03T01:54:45.614Z,99.99
2018-12-03T01:55:45.596Z,99.99
2018-12-03T01:56:45.596Z,99.99
2018-12-03T01:57:45.610Z,99.99
2018-12-03T01:58:45.591Z,99.99
2018-12-03T01:59:45.600Z,99.99
2018-12-03T02:00:45.586Z,99.99
2018-12-03T02:01:45.584Z,99.99
2018-12-03T02:02:45.324Z,99.99
2018-12-03T02:03:45.571Z,99.99
2018-12-03T02:04:45.321Z,99.99
2018-12-03T02:05:45.316Z,99.99
2018-12-03T02:06:45.560Z,99.99
2018-12-03T02:07:45.554Z,99.99
2018-12-03T02:08:45.562Z,99.99
2018-12-03T02:09:45.305Z,99.99
2018-12-03T02:10:45.565Z,99.99
2018-12-03T02:11:45.301Z,99.99
2018-12-03T02:12:45.558Z,99.99
2018-12-03T02:13:45.289Z,99.99
2018-12-03T02:14:45.291Z,99.99
2018-12-03T02:15:45.530Z,99.99
2018-12-03T02:16:45.526Z,99.99
2018-12-03T02:17:45.528Z,99.99
2018-12-03T02:18:45.520Z,99.99
2018-12-03T02:19:45.276Z,99.99
2018-12-03T02:20:45.509Z,99.99
2018-12-03T02:21:45.262Z,99.99
2018-12-03T02:22:45.258Z,99.99
2018-12-03T02:23:45.263Z,99.99
2018-12-03T02:24:45.504Z,99.99
2018-12-03T02:25:45.260Z,99.99
2018-12-03T02:26:45.248Z,99.99
2018-12-03T02:27:45.249Z,99.99
2018-12-03T02:28:45.516Z,99.99
2018-12-03T02:29:45.485Z,99.99
2018-12-03T02:30:45.235Z,99.99
2018-12-03T02:31:45.484Z,99.99
2018-12-03T02:32:45.480Z,99.99
2018-12-03T02:33:45.468Z,99.99
2018-12-03T02:34:45.471Z,99.99
2018-12-03T02:35:45.222Z,99.99
2018-12-03T02:36:45.473Z,99.99
2018-12-03T02:37:45.472Z,99.99
2018-12-03T02:38:45.488Z,99.99
2018-12-03T02:39:45.472Z,99.99
2018-12-03T02:40:45.461Z,99.99
2018-12-03T02:41:45.489Z,99.99
2018-12-03T02:42:45.208Z,99.99
2018-12-03T02:43:45.465Z,99.99
2018-12-03T02:44:45.457Z,99.99
2018-12-03T02:45:45.439Z,99.99
2018-12-03T02:46:45.447Z,99.99
2018-12-03T02:47:45.437Z,99.99
2018-12-03T02:48:45.185Z,99.99
2018-12-03T02:49:45.439Z,99.99
2018-12-03T02:50:45.177Z,99.99
2018-12-03T02:51:45.181Z,99.99
2018-12-03T02:52:45.416Z,99.99
2018-12-03T02:53:45.178Z,99.99
2018-12-03T02:54:45.162Z,99.99
2018-12-03T02:55:45.154Z,99.99
2018-12-03T02:56:45.169Z,99.99
2018-12-03T02:57:45.410Z,99.99
2018-12-03T02:58:45.525Z,99.99
2018-12-03T02:59:45.391Z,99.99
2018-12-03T03:00:46.316Z,99.99
2018-12-03T03:01:45.136Z,99.99
2018-12-03T03:02:45.397Z,99.99
2018-12-03T03:03:45.386Z,99.99
2018-12-03T03:04:45.397Z,99.99
2018-12-03T03:05:45.394Z,99.99
2018-12-03T03:06:45.119Z,99.99
2018-12-03T03:07:45.140Z,99.99
2018-12-03T03:08:45.363Z,99.99
2018-12-03T03:09:45.365Z,99.99
2018-12-03T03:10:45.369Z,99.99
2018-12-03T03:11:45.370Z,99.99
2018-12-03T03:12:45.141Z,99.99
2018-12-03T03:13:45.355Z,99.99
2018-12-03T03:14:45.114Z,99.99
2018-12-03T03:15:45.356Z,99.99
2018-12-03T03:16:45.339Z,99.99
2018-12-03T03:17:45.365Z,99.99
2018-12-03T03:18:45.336Z,99.99
2018-12-03T03:19:45.328Z,99.99
2018-12-03T03:20:45.358Z,99.99
2018-12-03T03:21:45.320Z,99.99
2018-12-03T03:22:45.084Z,99.99
2018-12-03T03:23:45.326Z,99.99
2018-12-03T03:24:45.309Z,99.99
2018-12-03T03:25:45.319Z,99.99
2018-12-03T03:26:45.080Z,99.99
2018-12-03T03:27:45.318Z,99.99
2018-12-03T03:28:45.298Z,99.99
2018-12-03T03:29:45.315Z,99.99
2018-12-03T03:30:45.307Z,99.99
2018-12-03T03:31:45.316Z,99.99
2018-12-03T03:32:45.313Z,99.99
2018-12-03T03:33:45.316Z,99.99
2018-12-03T03:34:45.284Z,99.99
2018-12-03T03:35:45.281Z,99.99
2018-12-03T03:36:45.274Z,99.99
2018-12-03T03:37:45.269Z,99.99
2018-12-03T03:38:45.260Z,99.99
2018-12-03T03:39:45.264Z,99.99
2018-12-03T03:40:45.255Z,99.99
2018-12-03T03:41:45.012Z,99.99
2018-12-03T03:42:45.012Z,99.99
2018-12-03T03:43:45.248Z,99.99
2018-12-03T03:44:45.244Z,99.99
2018-12-03T03:45:44.991Z,99.99
2018-12-03T03:46:45.247Z,99.99
2018-12-03T03:47:44.999Z,99.99
2018-12-03T03:48:45.008Z,99.99
2018-12-03T03:49:45.236Z,99.99
2018-12-03T03:50:44.991Z,99.99
2018-12-03T03:51:44.975Z,99.99
2018-12-03T03:52:44.970Z,99.99
2018-12-03T03:53:44.969Z,99.99
2018-12-03T03:54:45.219Z,99.99
2018-12-03T03:55:45.214Z,99.99
2018-12-03T03:56:45.214Z,99.99
2018-12-03T03:57:45.206Z,99.99
2018-12-03T03:58:45.211Z,99.99
2018-12-03T03:59:45.201Z,99.99
2018-12-03T04:00:44.953Z,99.99
2018-12-03T04:01:45.223Z,99.99
2018-12-03T04:02:44.959Z,99.99
2018-12-03T04:03:44.943Z,99.99
2018-12-03T04:04:44.945Z,99.99
2018-12-03T04:05:44.931Z,99.99
2018-12-03T04:06:44.928Z,99.99
2018-12-03T04:07:45.172Z,99.99
2018-12-03T04:08:44.930Z,99.99
2018-12-03T04:09:45.172Z,99.99
2018-12-03T04:10:45.165Z,99.99
2018-12-03T04:11:45.161Z,99.99
2018-12-03T04:12:45.169Z,99.99
2018-12-03T04:13:44.914Z,99.99
2018-12-03T04:14:45.184Z,99.99
2018-12-03T04:15:44.894Z,99.99
2018-12-03T04:16:45.151Z,99.99
2018-12-03T04:17:45.142Z,99.99
2018-12-03T04:18:44.895Z,99.99
2018-12-03T04:19:45.135Z,99.99
2018-12-03T04:20:45.144Z,99.99
2018-12-03T04:21:45.143Z,99.99
2018-12-03T04:22:45.139Z,99.99
2018-12-03T04:23:44.872Z,99.99
2018-12-03T04:24:44.867Z,99.99
2018-12-03T04:25:44.862Z,99.99
2018-12-03T04:26:44.854Z,99.99
2018-12-03T04:27:45.169Z,99.99
2018-12-03T04:28:45.114Z,99.99
2018-12-03T04:29:45.126Z,99.99
2018-12-03T04:30:45.102Z,99.99
2018-12-03T04:31:45.098Z,99.99
2018-12-03T04:32:44.844Z,99.99
2018-12-03T04:33:44.837Z,99.99
2018-12-03T04:34:45.122Z,99.99
2018-12-03T04:35:45.089Z,99.99
2018-12-03T04:36:45.090Z,99.99
2018-12-03T04:37:45.082Z,99.99
2018-12-03T04:38:45.093Z,99.99
2018-12-03T04:39:45.070Z,99.99
2018-12-03T04:40:44.876Z,99.99
2018-12-03T04:41:44.818Z,99.99
2018-12-03T04:42:45.063Z,99.99
2018-12-03T04:43:44.820Z,99.99
2018-12-03T04:44:45.053Z,99.99
2018-12-03T04:45:45.059Z,99.99
2018-12-03T04:46:44.803Z,99.99
2018-12-03T04:47:44.800Z,99.99
2018-12-03T04:48:45.049Z,99.99
2018-12-03T04:49:45.035Z,99.99
2018-12-03T04:50:44.808Z,99.99
2018-12-03T04:51:45.027Z,99.99
2018-12-03T04:52:45.067Z,99.99
2018-12-03T04:53:44.783Z,99.99
2018-12-03T04:54:44.780Z,99.99
2018-12-03T04:55:44.788Z,99.99
2018-12-03T04:56:45.006Z,99.99
2018-12-03T04:57:44.756Z,99.99
2018-12-03T04:58:45.010Z,99.99
2018-12-03T04:59:45.002Z,99.99
2018-12-03T05:00:45.015Z,99.99
2018-12-03T05:01:44.993Z,99.99
2018-12-03T05:02:44.743Z,99.99
2018-12-03T05:03:44.990Z,99.99
2018-12-03T05:04:44.739Z,99.99
2018-12-03T05:05:44.740Z,99.99
2018-12-03T05:06:44.986Z,99.99
2018-12-03T05:07:44.977Z,99.99
2018-12-03T05:08:44.738Z,99.99
2018-12-03T05:09:44.730Z,99.99
2018-12-03T05:10:44.965Z,99.99
2018-12-03T05:11:44.960Z,99.99
2018-12-03T05:12:44.963Z,99.99
2018-12-03T05:13:44.952Z,99.99
2018-12-03T05:14:44.706Z,99.99
2018-12-03T05:15:44.950Z,99.99
2018-12-03T05:16:44.705Z,99.99
2018-12-03T05:17:44.944Z,99.99
2018-12-03T05:18:44.944Z,99.99
2018-12-03T05:19:44.693Z,99.99
2018-12-03T05:20:44.683Z,99.99
2018-12-03T05:21:44.955Z,99.99
2018-12-03T05:22:46.549Z,99.99
2018-12-03T05:23:44.673Z,99.99
2018-12-03T05:24:44.927Z,99.99
2018-12-03T05:25:44.930Z,99.99
2018-12-03T05:26:44.922Z,99.99
2018-12-03T05:27:44.664Z,99.99
2018-12-03T05:28:44.903Z,99.99
2018-12-03T05:29:44.655Z,99.99
2018-12-03T05:30:44.902Z,99.99
2018-12-03T05:31:44.895Z,99.99
2018-12-03T05:32:44.715Z,99.99
2018-12-03T05:33:44.896Z,99.99
2018-12-03T05:34:44.650Z,99.99
2018-12-03T05:35:44.884Z,99.99
2018-12-03T05:36:44.878Z,99.99
2018-12-03T05:37:44.879Z,99.99
2018-12-03T05:38:44.630Z,99.99
2018-12-03T05:39:44.625Z,99.99
2018-12-03T05:40:44.875Z,99.99
2018-12-03T05:41:45.037Z,99.99
2018-12-03T05:42:44.873Z,99.99
2018-12-03T05:43:44.857Z,99.99
2018-12-03T05:44:44.852Z,99.99
2018-12-03T05:45:44.620Z,99.99
2018-12-03T05:46:44.639Z,99.99
2018-12-03T05:47:44.851Z,99.99
2018-12-03T05:48:44.894Z,99.99
2018-12-03T05:49:44.590Z,99.99
2018-12-03T05:50:44.589Z,99.99
2018-12-03T05:51:44.587Z,99.99
2018-12-03T05:52:44.585Z,99.99
2018-12-03T05:53:44.578Z,99.99
2018-12-03T05:54:44.817Z,99.99
2018-12-03T05:55:44.822Z,99.99
2018-12-03T05:56:44.818Z,99.99
2018-12-03T05:57:44.818Z,99.99
2018-12-03T05:58:44.577Z,99.99
2018-12-03T05:59:44.805Z,99.99
2018-12-03T06:00:44.815Z,99.99
2018-12-03T06:01:44.549Z,99.99
2018-12-03T06:02:44.570Z,99.99
2018-12-03T06:03:44.804Z,99.99
2018-12-03T06:04:44.543Z,99.99
2018-12-03T06:05:44.785Z,99.99
2018-12-03T06:06:44.807Z,99.99
2018-12-03T06:07:44.531Z,99.99
2018-12-03T06:08:44.533Z,99.99
2018-12-03T06:09:44.818Z,99.99
2018-12-03T06:10:44.531Z,99.99
2018-12-03T06:11:44.780Z,99.99
2018-12-03T06:12:44.523Z,99.99
2018-12-03T06:13:44.530Z,99.99
2018-12-03T06:14:44.504Z,99.99
2018-12-03T06:15:44.504Z,99.99
2018-12-03T06:16:44.749Z,99.99
2018-12-03T06:17:44.508Z,99.99
2018-12-03T06:18:44.496Z,99.99
2018-12-03T06:19:44.490Z,99.99
2018-12-03T06:20:44.736Z,99.99
2018-12-03T06:21:44.485Z,99.99
2018-12-03T06:22:44.731Z,99.99
2018-12-03T06:23:44.721Z,99.99
2018-12-03T06:24:44.737Z,99.99
2018-12-03T06:25:44.477Z,99.99
2018-12-03T06:26:44.483Z,99.99
2018-12-03T06:27:44.463Z,99.99
2018-12-03T06:28:44.705Z,99.99
2018-12-03T06:29:44.458Z,99.99
2018-12-03T06:30:44.456Z,99.99
2018-12-03T06:31:44.464Z,99.99
2018-12-03T06:32:44.714Z,99.99
2018-12-03T06:33:44.696Z,99.99
2018-12-03T06:34:44.696Z,99.99
2018-12-03T06:35:44.684Z,99.99
2018-12-03T06:36:44.436Z,99.99
2018-12-03T06:37:44.447Z,99.99
2018-12-03T06:38:44.670Z,99.99
2018-12-03T06:39:44.440Z,99.99
2018-12-03T06:40:44.420Z,99.99
2018-12-03T06:41:44.417Z,99.99
2018-12-03T06:42:44.414Z,99.99
2018-12-03T06:43:44.684Z,99.99
2018-12-03T06:44:44.410Z,99.99
2018-12-03T06:45:44.651Z,99.99
2018-12-03T06:46:44.648Z,99.99
2018-12-03T06:47:44.399Z,99.99
2018-12-03T06:48:44.397Z,99.99
2018-12-03T06:49:44.645Z,99.99
2018-12-03T06:50:44.399Z,99.99
2018-12-03T06:51:44.640Z,99.99
2018-12-03T06:52:44.640Z,99.99
2018-12-03T06:53:44.380Z,99.99
2018-12-03T06:54:45.055Z,99.99
2018-12-03T06:55:44.371Z,99.99
2018-12-03T06:56:44.632Z,99.99
2018-12-03T06:57:44.615Z,99.99
2018-12-03T06:58:44.355Z,99.99
2018-12-03T06:59:44.608Z,99.99
2018-12-03T07:00:44.598Z,99.99
2018-12-03T07:01:44.598Z,99.99
2018-12-03T07:02:44.356Z,99.99
2018-12-03T07:03:44.611Z,99.99
2018-12-03T07:04:44.343Z,99.99
2018-12-03T07:05:44.597Z,99.99
2018-12-03T07:06:44.578Z,99.99
2018-12-03T07:07:44.570Z,99.99
2018-12-03T07:08:44.575Z,99.99
2018-12-03T07:09:44.587Z,99.99
2018-12-03T07:10:44.575Z,99.99
2018-12-03T07:11:44.317Z,99.99
2018-12-03T07:12:44.561Z,99.99
2018-12-03T07:13:44.557Z,99.99
2018-12-03T07:14:44.557Z,99.99
2018-12-03T07:15:44.559Z,99.99
2018-12-03T07:16:44.566Z,99.99
2018-12-03T07:17:44.562Z,99.99
2018-12-03T07:18:44.540Z,99.99
2018-12-03T07:19:44.297Z,99.99
2018-12-03T07:20:44.541Z,99.99
2018-12-03T07:21:44.528Z,99.99
2018-12-03T07:22:44.286Z,99.99
2018-12-03T07:23:44.272Z,99.99
2018-12-03T07:24:44.521Z,99.99
2018-12-03T07:25:44.269Z,99.99
2018-12-03T07:26:44.260Z,99.99
2018-12-03T07:27:44.506Z,99.99
2018-12-03T07:28:44.517Z,99.99
2018-12-03T07:29:44.267Z,99.99
2018-12-03T07:30:44.512Z,99.99
2018-12-03T07:31:44.264Z,99.99
2018-12-03T07:32:44.270Z,99.99
2018-12-03T07:33:44.512Z,99.99
2018-12-03T07:34:44.236Z,99.99
2018-12-03T07:35:44.233Z,99.99
2018-12-03T07:36:44.480Z,99.99
2018-12-03T07:37:44.227Z,99.99
2018-12-03T07:38:44.220Z,99.99
2018-12-03T07:39:44.475Z,99.99
2018-12-03T07:40:44.219Z,99.99
2018-12-03T07:41:44.464Z,99.99
2018-12-03T07:42:44.483Z,99.99
2018-12-03T07:43:44.209Z,99.99
2018-12-03T07:44:44.448Z,99.99
2018-12-03T07:45:44.452Z,99.99
2018-12-03T07:46:44.453Z,99.99
2018-12-03T07:47:44.206Z,99.99
2018-12-03T07:48:44.466Z,99.99
2018-12-03T07:49:45.042Z,99.99
2018-12-03T07:50:44.190Z,99.99
2018-12-03T07:51:44.175Z,99.99
2018-12-03T07:52:44.178Z,99.99
2018-12-03T07:53:44.179Z,99.99
2018-12-03T07:54:44.420Z,99.99
2018-12-03T07:55:44.421Z,99.99
2018-12-03T07:56:44.175Z,99.99
2018-12-03T07:57:44.418Z,99.99
2018-12-03T07:58:44.422Z,99.99
2018-12-03T07:59:44.404Z,99.99
2018-12-03T08:00:44.171Z,99.99
2018-12-03T08:01:44.403Z,99.99
2018-12-03T08:02:44.393Z,99.99
2018-12-03T08:03:44.156Z,99.99
2018-12-03T08:04:44.387Z,99.99
2018-12-03T08:05:44.402Z,99.99
2018-12-03T08:06:44.384Z,99.99
2018-12-03T08:07:44.144Z,99.99
2018-12-03T08:08:44.158Z,99.99
2018-12-03T08:09:44.379Z,99.99
2018-12-03T08:10:44.144Z,99.99
2018-12-03T08:11:44.372Z,99.99
2018-12-03T08:12:44.369Z,99.99
2018-12-03T08:13:44.364Z,99.99
2018-12-03T08:14:44.393Z,99.99
2018-12-03T08:15:44.356Z,99.99
2018-12-03T08:16:44.113Z,99.99
2018-12-03T08:17:44.362Z,99.99
2018-12-03T08:18:44.357Z,99.99
2018-12-03T08:19:44.131Z,99.99
2018-12-03T08:20:44.351Z,99.99
2018-12-03T08:21:44.353Z,99.99
2018-12-03T08:22:44.343Z,99.99
2018-12-03T08:23:44.344Z,99.99
2018-12-03T08:24:44.339Z,99.99
2018-12-03T08:25:44.337Z,99.99
2018-12-03T08:26:44.336Z,99.99
2018-12-03T08:27:44.096Z,99.99
2018-12-03T08:28:44.328Z,99.99
2018-12-03T08:29:44.330Z,99.99
2018-12-03T08:30:44.082Z,99.99
2018-12-03T08:31:44.322Z,99.99
2018-12-03T08:32:44.333Z,99.99
2018-12-03T08:33:44.318Z,99.99
2018-12-03T08:34:44.329Z,99.99
2018-12-03T08:35:44.062Z,99.99
2018-12-03T08:36:44.072Z,99.99
2018-12-03T08:37:44.309Z,99.99
2018-12-03T08:38:44.305Z,99.99
2018-12-03T08:39:44.303Z,99.99
2018-12-03T08:40:44.060Z,99.99
2018-12-03T08:41:44.311Z,99.99
2018-12-03T08:42:44.294Z,99.99
2018-12-03T08:43:44.302Z,99.99
2018-12-03T08:44:44.300Z,99.99
2018-12-03T08:45:44.328Z,99.99
2018-12-03T08:46:44.288Z,99.99
2018-12-03T08:47:44.070Z,99.99
2018-12-03T08:48:44.336Z,99.99
2018-12-03T08:49:44.287Z,99.99
2018-12-03T08:50:44.281Z,99.99
2018-12-03T08:51:44.034Z,99.99
2018-12-03T08:52:44.033Z,99.99
2018-12-03T08:53:44.275Z,99.99
2018-12-03T08:54:44.273Z,99.99
2018-12-03T08:55:44.276Z,99.99
2018-12-03T08:56:44.270Z,99.99
2018-12-03T08:57:44.287Z,99.99
2018-12-03T08:58:44.281Z,99.99
2018-12-03T08:59:44.269Z,99.99
2018-12-03T09:00:44.277Z,99.99
2018-12-03T09:01:44.031Z,99.99
2018-12-03T09:02:44.013Z,99.99
2018-12-03T09:03:44.011Z,99.99
2018-12-03T09:04:44.031Z,99.99
2018-12-03T09:05:44.257Z,99.99
2018-12-03T09:06:44.005Z,99.99
2018-12-03T09:07:44.250Z,99.99
2018-12-03T09:08:44.006Z,99.99
2018-12-03T09:09:44.250Z,99.99
2018-12-03T09:10:44.251Z,99.99
2018-12-03T09:11:44.254Z,99.99
2018-12-03T09:12:44.246Z,99.99
2018-12-03T09:13:44.250Z,99.99
2018-12-03T09:14:44.002Z,99.99
2018-12-03T09:15:44.005Z,99.99
2018-12-03T09:16:44.241Z,99.99
2018-12-03T09:17:44.251Z,99.99
2018-12-03T09:18:44.256Z,99.99
2018-12-03T09:19:44.233Z,99.99
2018-12-03T09:20:44.254Z,99.99
2018-12-03T09:21:43.993Z,99.99
2018-12-03T09:22:44.236Z,99.99
2018-12-03T09:23:44.259Z,99.99
2018-12-03T09:24:44.243Z,99.99
2018-12-03T09:25:44.249Z,99.99
2018-12-03T09:26:43.983Z,99.99
2018-12-03T09:27:43.986Z,99.99
2018-12-03T09:28:44.250Z,99.99
2018-12-03T09:29:44.218Z,99.99
2018-12-03T09:30:44.227Z,99.99
2018-12-03T09:31:44.220Z,99.99
2018-12-03T09:32:43.969Z,99.99
2018-12-03T09:33:43.968Z,99.99
2018-12-03T09:34:43.969Z,99.99
2018-12-03T09:35:44.263Z,99.99
2018-12-03T09:36:43.962Z,99.99
2018-12-03T09:37:44.203Z,99.99
2018-12-03T09:38:44.205Z,99.99
2018-12-03T09:39:43.960Z,99.99
2018-12-03T09:40:44.208Z,99.99
2018-12-03T09:41:44.218Z,99.99
2018-12-03T09:42:43.956Z,99.99
2018-12-03T09:43:44.207Z,99.99
2018-12-03T09:44:44.208Z,99.99
2018-12-03T09:45:44.211Z,99.99
2018-12-03T09:46:44.205Z,99.99
2018-12-03T09:47:44.199Z,99.99
2018-12-03T09:48:43.945Z,99.99
2018-12-03T09:49:43.950Z,99.99
2018-12-03T09:50:45.548Z,99.99
2018-12-03T09:51:44.198Z,99.99
2018-12-03T09:52:44.183Z,99.99
2018-12-03T09:53:44.183Z,99.99
2018-12-03T09:54:44.187Z,99.99
2018-12-03T09:55:44.174Z,99.99
2018-12-03T09:56:44.176Z,99.99
2018-12-03T09:57:44.176Z,99.99
2018-12-03T09:58:43.919Z,99.99
2018-12-03T09:59:44.173Z,99.99
2018-12-03T10:00:44.176Z,99.99
2018-12-03T10:01:44.172Z,99.99
2018-12-03T10:02:43.911Z,99.99
2018-12-03T10:03:43.913Z,99.99
2018-12-03T10:04:44.179Z,99.99
2018-12-03T10:05:44.178Z,99.99
2018-12-03T10:06:44.174Z,99.99
2018-12-03T10:07:43.910Z,99.99
2018-12-03T10:08:43.936Z,99.99
2018-12-03T10:09:44.155Z,99.99
2018-12-03T10:10:44.157Z,99.99
2018-12-03T10:11:43.906Z,99.99
2018-12-03T10:12:44.153Z,99.99
2018-12-03T10:13:44.153Z,99.99
2018-12-03T10:14:43.897Z,99.99
2018-12-03T10:15:43.920Z,99.99
2018-12-03T10:16:44.134Z,99.99
2018-12-03T10:17:44.143Z,99.99
2018-12-03T10:18:44.131Z,99.99
2018-12-03T10:19:44.149Z,99.99
2018-12-03T10:20:44.694Z,99.99
2018-12-03T10:21:44.141Z,99.99
2018-12-03T10:22:43.869Z,99.99
2018-12-03T10:23:44.125Z,99.99
2018-12-03T10:24:44.119Z,99.99
2018-12-03T10:25:43.880Z,99.99
2018-12-03T10:26:44.115Z,99.99
2018-12-03T10:27:43.868Z,99.99
2018-12-03T10:28:44.142Z,99.99
2018-12-03T10:29:43.871Z,99.99
2018-12-03T10:30:43.880Z,99.99
2018-12-03T10:31:44.137Z,99.99
2018-12-03T10:32:44.130Z,99.99
2018-12-03T10:33:44.116Z,99.99
2018-12-03T10:34:44.108Z,99.99
2018-12-03T10:35:43.903Z,99.99
2018-12-03T10:36:43.862Z,99.99
2018-12-03T10:37:43.869Z,99.99
2018-12-03T10:38:43.880Z,99.99
2018-12-03T10:39:44.102Z,99.99
2018-12-03T10:40:43.862Z,99.99
2018-12-03T10:41:44.106Z,99.99
2018-12-03T10:42:44.108Z,99.99
2018-12-03T10:43:43.846Z,99.99
2018-12-03T10:44:44.096Z,99.99
2018-12-03T10:45:44.102Z,99.99
2018-12-03T10:46:43.853Z,99.99
2018-12-03T10:47:44.095Z,99.99
2018-12-03T10:48:44.114Z,99.99
2018-12-03T10:49:43.849Z,99.99
2018-12-03T10:50:44.104Z,99.99
2018-12-03T10:51:44.103Z,99.99
2018-12-03T10:52:43.848Z,99.99
2018-12-03T10:53:44.089Z,99.99
2018-12-03T10:54:43.845Z,99.99
2018-12-03T10:55:44.095Z,99.99
2018-12-03T10:56:43.848Z,99.99
2018-12-03T10:57:43.839Z,99.99
2018-12-03T10:58:44.107Z,99.99
2018-12-03T10:59:43.844Z,99.99
2018-12-03T11:00:43.833Z,99.99
2018-12-03T11:01:43.856Z,99.99
2018-12-03T11:02:43.836Z,99.99
2018-12-03T11:03:44.078Z,99.99
2018-12-03T11:04:43.832Z,99.99
2018-12-03T11:05:43.846Z,99.99
2018-12-03T11:06:44.092Z,99.99
2018-12-03T11:07:44.074Z,99.99
2018-12-03T11:08:44.079Z,99.99
2018-12-03T11:09:44.090Z,99.99
2018-12-03T11:10:44.075Z,99.99
2018-12-03T11:11:43.864Z,99.99
2018-12-03T11:12:43.827Z,99.99
2018-12-03T11:13:43.831Z,99.67
2018-12-03T11:14:43.827Z,99.67
2018-12-03T11:15:43.821Z,99.99
2018-12-03T11:16:43.866Z,99.82
2018-12-03T11:17:44.091Z,97.9
2018-12-03T11:18:44.066Z,97.14
2018-12-03T11:19:43.822Z,96.84
2018-12-03T11:20:43.815Z,97.04
2018-12-03T11:21:44.316Z,97.14
2018-12-03T11:22:43.821Z,98.1
2018-12-03T11:23:44.063Z,96.94
2018-12-03T11:24:44.062Z,96.27
2018-12-03T11:25:44.061Z,97.14
2018-12-03T11:26:44.064Z,95.89
2018-12-03T11:27:44.055Z,96.84
2018-12-03T11:28:43.811Z,96.66
2018-12-03T11:29:44.066Z,96.84
2018-12-03T11:30:43.859Z,97.04
2018-12-03T11:31:43.807Z,96.75
2018-12-03T11:32:43.814Z,97.23
2018-12-03T11:33:44.059Z,96.94
2018-12-03T11:34:44.053Z,95.79
2018-12-03T11:35:44.057Z,95.89
2018-12-03T11:36:43.822Z,95.7
2018-12-03T11:37:44.069Z,95.31
2018-12-03T11:38:44.058Z,94.74
2018-12-03T11:39:43.806Z,95.31
2018-12-03T11:40:44.054Z,94.74
2018-12-03T11:41:44.059Z,94.07
2018-12-03T11:42:43.815Z,93.49
2018-12-03T11:43:43.812Z,93.98
2018-12-03T11:44:44.051Z,94.35
2018-12-03T11:45:44.050Z,93.88
2018-12-03T11:46:44.047Z,93.88
2018-12-03T11:47:44.076Z,94.26
2018-12-03T11:48:44.058Z,93.98
2018-12-03T11:49:44.064Z,93.69
2018-12-03T11:50:43.804Z,94.26
2018-12-03T11:51:44.205Z,94.35
2018-12-03T11:52:44.035Z,93.69
2018-12-03T11:53:43.792Z,93.4
2018-12-03T11:54:44.046Z,94.84
2018-12-03T11:55:44.046Z,93.49
2018-12-03T11:56:43.813Z,94.26
2018-12-03T11:57:44.054Z,94.64
2018-12-03T11:58:43.794Z,94.45
2018-12-03T11:59:44.045Z,94.64
2018-12-03T12:00:44.064Z,93.69
2018-12-03T12:01:43.792Z,93.59
2018-12-03T12:02:43.796Z,93.78
2018-12-03T12:03:45.303Z,92.63
2018-12-03T12:04:44.039Z,93.02
2018-12-03T12:05:44.061Z,93.21
2018-12-03T12:06:43.794Z,93.59
2018-12-03T12:07:44.906Z,93.69
2018-12-03T12:08:43.793Z,93.02
2018-12-03T12:09:44.032Z,93.11
2018-12-03T12:10:43.789Z,93.3
2018-12-03T12:11:44.035Z,93.49
2018-12-03T12:12:43.926Z,93.98
2018-12-03T12:13:43.794Z,93.59
2018-12-03T12:14:44.025Z,93.69
2018-12-03T12:15:44.051Z,93.11
2018-12-03T12:16:44.026Z,93.49
2018-12-03T12:17:43.792Z,92.82
2018-12-03T12:18:44.032Z,92.15
2018-12-03T12:19:44.035Z,92.35
2018-12-03T12:20:44.055Z,92.25
2018-12-03T12:21:46.478Z,92.15
2018-12-03T12:22:44.026Z,92.44
2018-12-03T12:23:44.027Z,92.44
2018-12-03T12:24:44.027Z,92.25
2018-12-03T12:25:44.048Z,91.86
2018-12-03T12:26:44.021Z,91.67
2018-12-03T12:27:44.021Z,91.49
2018-12-03T12:28:44.028Z,92.82
2018-12-03T12:29:43.770Z,92.82
2018-12-03T12:30:44.012Z,92.44
2018-12-03T12:31:44.014Z,91.19
2018-12-03T12:32:43.769Z,92.06
2018-12-03T12:33:44.016Z,91.19
2018-12-03T12:34:44.015Z,91.67
2018-12-03T12:35:43.772Z,92.63
2018-12-03T12:36:43.769Z,92.15
2018-12-03T12:37:43.770Z,91.96
2018-12-03T12:38:44.013Z,91.58
2018-12-03T12:39:44.016Z,91.49
2018-12-03T12:40:43.781Z,91.49
2018-12-03T12:41:43.762Z,91.49
2018-12-03T12:42:44.009Z,91.19
2018-12-03T12:43:44.014Z,90.72
2018-12-03T12:44:44.008Z,90.81
2018-12-03T12:45:43.759Z,91.77
2018-12-03T12:46:44.020Z,91.39
2018-12-03T12:47:44.012Z,91.49
2018-12-03T12:48:43.755Z,90.62
2018-12-03T12:49:44.004Z,91.19
2018-12-03T12:50:44.007Z,91.67
2018-12-03T12:51:44.259Z,91.67
2018-12-03T12:52:44.006Z,90.72